Flight Track Log - Related Links

Times and Time Zones

All times are in EDT time to prevent confusion due to time zone crossing. See the N252EC flight status page for this flight to view local times or setup timezone preferences in your user account.

Time Position Orientation Groundspeed Altitude Reporting Facility
EDT Latitude Longitude Course Direction KTS MPH feet Rate Location/Type
Mon 09:37:04 AM 35.4903 -81.1539 46° Northeast 54 62 1,200  Level Atlanta Center
Mon 09:38:19 AM 35.5064 -81.1331 46° Northeast 72 83 2,000 684 Climbing Atlanta Center
Mon 09:38:23 AM 35.5108 -81.1328 North 72 83 2,100 600 Climbing Atlanta Center
Mon 09:39:19 AM 35.5208 -81.1197 47° Northeast 65 75 2,600 689 Climbing Atlanta Center
Mon 09:39:24 AM 35.5208 -81.1172 90° East 61 70 2,800 700 Climbing Atlanta Center
Mon 09:40:19 AM 35.5331 -81.1067 35° Northeast 63 72 3,300 522 Climbing Atlanta Center
Mon 09:41:19 AM 35.5497 -81.1083 355° North 57 66 3,800 300 Climbing Atlanta Center
Mon 09:42:19 AM 35.5731 -81.1178 342° North 74 85 3,900 50 Climbing Atlanta Center
Mon 09:43:19 AM 35.5981 -81.1219 352° North 85 98 3,900  Level Atlanta Center
Mon 09:44:19 AM 35.6167 -81.1111 25° Northeast 85 98 3,900  Level Atlanta Center
Mon 09:45:19 AM 35.6350 -81.0978 31° Northeast 80 92 3,900 50 Level Atlanta Center
Mon 09:46:19 AM 35.6578 -81.0867 22° Northeast 75 86 4,000 50 Climbing Atlanta Center
Mon 09:47:19 AM 35.6783 -81.0758 23° Northeast 70 81 4,000 -50 Level Atlanta Center
Mon 09:48:19 AM 35.7008 -81.0597 30° Northeast 76 87 3,900 -50 Descending Atlanta Center
Mon 09:49:19 AM 35.7214 -81.0486 24° Northeast 76 87 3,900  Level Atlanta Center
Mon 09:50:19 AM 35.7461 -81.0350 24° Northeast 81 93 3,900  Level Atlanta Center
Mon 09:51:19 AM 35.7689 -81.0239 22° Northeast 86 99 3,900 50 Level Atlanta Center
Mon 09:52:19 AM 35.7939 -81.0281 352° North 86 99 4,000  Climbing Atlanta Center
Mon 09:53:19 AM 35.8192 -81.0322 352° North 86 99 3,900  Descending Atlanta Center
Mon 09:54:19 AM 35.8464 -81.0336 358° North 86 99 4,000  Climbing Atlanta Center
Mon 09:55:19 AM 35.8736 -81.0378 353° North 86 99 3,900 -250 Descending Atlanta Center
Mon 09:56:19 AM 35.8786 -81.0761 279° West 81 93 3,500 -200 Descending Atlanta Center
Mon 09:57:19 AM 35.8817 -81.1144 276° West 115 132 3,500 -100 Level Atlanta Center
Mon 09:58:19 AM 35.8742 -81.1481 255° West 122 140 3,300 -350 Descending Atlanta Center
Mon 09:59:19 AM 35.8561 -81.1844 239° Southwest 122 140 2,800 -350 Descending Atlanta Center
Mon 10:00:19 AM 35.8403 -81.2183 240° Southwest 126 145 2,600 -100 Descending Atlanta Center
Mon 10:01:19 AM 35.8200 -81.2472 229° Southwest 118 136 2,600  Level Atlanta Center
Mon 10:02:19 AM 35.8019 -81.2761 232° Southwest 111 128 2,600  Level Atlanta Center
Mon 10:03:19 AM 35.7881 -81.3072 241° Southwest 105 121 2,600 -200 Level Atlanta Center
Mon 10:04:19 AM 35.7700 -81.3386 235° Southwest 105 121 2,200 -500 Descending Atlanta Center
Mon 10:05:19 AM 35.7539 -81.3672 235° Southwest 110 127 1,600 -200 Descending Atlanta Center
Mon 10:06:19 AM 35.7400 -81.3983 241° Southwest 110 127 1,800 400 Climbing Atlanta Center
Mon 10:07:19 AM 35.7572 -81.4208 313° West 77 89 2,400 600 Climbing Atlanta Center
Mon 10:08:19 AM 35.7764 -81.4408 320° Northwest 83 96 3,000 500 Climbing Atlanta Center
Mon 10:09:19 AM 35.7956 -81.4581 324° Northwest 93 107 3,400 450 Climbing Atlanta Center
Mon 10:10:19 AM 35.8208 -81.4753 331° Northwest 93 107 3,900 300 Climbing Atlanta Center
Mon 10:11:19 AM 35.8317 -81.4978 301° West 88 101 4,000 50 Climbing Atlanta Center
Mon 10:12:19 AM 35.8025 -81.4936 173° South 56 64 4,000  Level Atlanta Center
Mon 10:13:19 AM 35.7811 -81.4739 143° Southeast 79 91 4,000 -100 Level Atlanta Center
Mon 10:14:19 AM 35.7639 -81.4489 130° Southeast 90 104 3,800  Descending Atlanta Center
Mon 10:15:27 AM 35.7344 -81.4394 165° South 100 115 4,000 61 Climbing Atlanta Center
Mon 10:15:57 AM 35.7219 -81.4375 173° South 105 121 3,900 -115 Descending Atlanta Center
Mon 10:16:19 AM 35.7114 -81.4353 170° South 97 112 3,900 97 Level Atlanta Center
Mon 10:16:59 AM 35.6925 -81.4306 169° South 105 121 4,000  Climbing Atlanta Center
Mon 10:17:19 AM 35.6800 -81.4258 163° South 102 117 3,900 -109 Descending Atlanta Center
Mon 10:17:54 AM 35.6653 -81.4239 174° South 105 121 3,900 100 Level Atlanta Center
Mon 10:18:19 AM 35.6569 -81.4242 182° South 102 117 4,000 197 Climbing Atlanta Center
Mon 10:18:55 AM 35.6361 -81.4197 170° South 94 108 4,100 100 Climbing Atlanta Center
Mon 10:19:19 AM 35.6297 -81.4172 162° South 102 117 4,100 -197 Level Atlanta Center
Mon 10:19:56 AM 35.6086 -81.4103 165° South 106 122 3,900 -100 Descending Atlanta Center
Mon 10:20:19 AM 35.6003 -81.4106 182° South 107 123 4,000 90 Climbing Atlanta Center
Mon 10:21:03 AM 35.5794 -81.4036 165° South 99 114 4,000  Level Atlanta Center
Mon 10:21:19 AM 35.5753 -81.4036 180° South 107 123 4,000  Level Atlanta Center
Mon 10:22:04 AM 35.5500 -81.3917 159° South 98 113 4,000  Level Atlanta Center
Mon 10:22:19 AM 35.5478 -81.3944 225° Southwest 107 123 4,000  Level Atlanta Center
Mon 10:23:05 AM 35.5228 -81.3900 172° South 104 120 4,000  Level Atlanta Center
Mon 10:23:19 AM 35.5186 -81.3903 183° South 107 123 4,000  Level Atlanta Center
Mon 10:24:19 AM 35.4933 -81.3808 163° South 102 117 4,000  Level Atlanta Center
Mon 10:25:02 AM 35.4703 -81.3739 166° South 101 116 4,000  Level Atlanta Center
Mon 10:25:19 AM 35.4642 -81.3767 200° South 102 117 4,000  Level Atlanta Center
Mon 10:26:03 AM 35.4411 -81.3750 177° South 107 123 4,000  Level Atlanta Center
Mon 10:27:04 AM 35.4117 -81.3683 170° South 96 110 4,000  Level Atlanta Center
Mon 10:28:05 AM 35.3828 -81.3767 193° South 113 130 4,000  Level Atlanta Center
Mon 10:29:06 AM 35.3603 -81.3978 217° Southwest 114 131 4,000  Level Atlanta Center
Mon 10:30:08 AM 35.3333 -81.4089 199° South 105 121 4,000 -341 Level Atlanta Center
Mon 10:31:09 AM 35.3183 -81.3942 141° Southeast 84 97 3,300 -443 Descending Atlanta Center
Mon 10:32:10 AM 35.3325 -81.3733 50° Northeast 76 87 3,100 -50 Descending Atlanta Center
Mon 10:33:10 AM 35.3467 -81.3550 47° Northeast 74 85 3,200 -99 Climbing Atlanta Center
Mon 10:34:11 AM 35.3567 -81.3344 59° Northeast 76 87 2,900 -295 Descending Atlanta Center
Mon 10:35:12 AM 35.3686 -81.3111 58° Northeast 86 99 2,600 -148 Descending Atlanta Center
Mon 10:36:13 AM 35.3869 -81.2900 43° Northeast 78 90 2,600 49 Level Atlanta Center
Mon 10:37:14 AM 35.4033 -81.2717 42° Northeast 76 87 2,700 49 Climbing Atlanta Center
Mon 10:38:15 AM 35.4175 -81.2558 42° Northeast 68 78 2,700 -98 Level Atlanta Center
Mon 10:39:16 AM 35.4275 -81.2378 56° Northeast 70 81 2,500 -443 Descending Atlanta Center
Mon 10:40:17 AM 35.4417 -81.2194 47° Northeast 78 90 1,800 -689 Descending Atlanta Center

Login

Don't have an account? Register now (free) for customized features, flight alerts, and more!